createdAt,value
2023-05-18T00:01:14.469Z,1.08
2023-05-18T00:03:42.439Z,1.05
2023-05-18T00:06:10.219Z,1.10
2023-05-18T00:08:38.138Z,1.20
2023-05-18T00:11:06.580Z,1.00
2023-05-18T00:13:33.631Z,1.20
2023-05-18T00:16:00.672Z,1.20
2023-05-18T00:18:28.279Z,1.30
2023-05-18T00:21:02.033Z,1.17
2023-05-18T00:23:30.916Z,1.10
2023-05-18T00:25:59.413Z,1.40
2023-05-18T00:28:26.679Z,1.30
2023-05-18T00:30:54.289Z,1.10
2023-05-18T00:33:21.037Z,1.20
2023-05-18T00:35:47.754Z,1.30
2023-05-18T00:38:17.168Z,1.20
2023-05-18T00:40:44.276Z,1.30
2023-05-18T00:43:11.261Z,1.20
2023-05-18T00:45:38.093Z,1.20
2023-05-18T00:48:05.072Z,1.15
2023-05-18T00:50:32.000Z,1.20
2023-05-18T00:52:59.232Z,1.20
2023-05-18T00:55:28.086Z,1.10
2023-05-18T00:57:56.566Z,1.20
2023-05-18T01:00:24.077Z,1.17
2023-05-18T01:02:51.414Z,1.20
2023-05-18T01:05:20.141Z,1.15
2023-05-18T01:07:48.097Z,1.15
2023-05-18T01:10:17.558Z,1.30
2023-05-18T01:13:07.081Z,1.23
2023-05-18T01:15:39.371Z,1.20
2023-05-18T01:18:25.674Z,1.00
2023-05-18T01:21:31.573Z,1.10
2023-05-18T01:24:17.689Z,1.00
2023-05-18T01:26:46.995Z,1.20
2023-05-18T01:29:14.284Z,1.10
2023-05-18T01:31:41.442Z,1.10
2023-05-18T01:34:08.111Z,1.20
2023-05-18T01:36:34.731Z,1.17
2023-05-18T01:39:02.258Z,1.10
2023-05-18T01:41:30.576Z,1.10
2023-05-18T01:44:19.513Z,1.10
2023-05-18T01:46:58.536Z,1.00
2023-05-18T01:49:36.262Z,1.20
2023-05-18T01:52:10.280Z,1.25
2023-05-18T01:54:41.686Z,1.35
2023-05-18T01:57:09.658Z,1.27
2023-05-18T01:59:37.967Z,1.27
2023-05-18T02:02:05.658Z,1.10
2023-05-18T02:04:32.443Z,1.10
2023-05-18T02:06:59.112Z,1.08
2023-05-18T02:09:26.080Z,1.00
2023-05-18T02:11:52.718Z,1.10
2023-05-18T02:14:19.374Z,1.10
2023-05-18T02:16:47.285Z,1.10
2023-05-18T02:19:17.587Z,1.10
2023-05-18T02:21:44.799Z,1.20
2023-05-18T02:24:12.694Z,1.27
2023-05-18T02:26:39.635Z,1.20
2023-05-18T02:29:12.214Z,1.25
2023-05-18T02:31:39.045Z,1.20
2023-05-18T02:34:06.400Z,1.13
2023-05-18T02:36:42.877Z,1.20
2023-05-18T02:39:10.507Z,1.40
2023-05-18T02:41:37.660Z,1.30
2023-05-18T02:44:05.416Z,1.20
2023-05-18T02:46:32.365Z,1.20
2023-05-18T02:48:59.391Z,1.17
2023-05-18T02:51:26.089Z,1.27
2023-05-18T02:53:52.717Z,1.30
2023-05-18T02:56:19.322Z,1.23
2023-05-18T02:58:46.064Z,1.35
2023-05-18T03:01:12.800Z,1.30
2023-05-18T03:03:42.213Z,1.10
2023-05-18T03:06:09.718Z,1.30
2023-05-18T03:08:37.432Z,1.33
2023-05-18T03:11:04.287Z,1.38
2023-05-18T03:13:30.956Z,1.20
2023-05-18T03:15:57.784Z,1.30
2023-05-18T03:18:25.756Z,1.10
2023-05-18T03:20:52.763Z,1.10
2023-05-18T03:23:20.425Z,1.30
2023-05-18T03:25:47.085Z,1.23
2023-05-18T03:28:13.719Z,1.30
2023-05-18T03:30:40.561Z,1.20
2023-05-18T03:33:07.433Z,1.20
2023-05-18T03:35:34.151Z,1.20
2023-05-18T03:38:00.904Z,1.13
2023-05-18T03:40:27.570Z,1.20
2023-05-18T03:42:54.272Z,1.20
2023-05-18T03:45:21.110Z,1.20
2023-05-18T03:47:47.897Z,1.30
2023-05-18T03:50:14.984Z,1.30
2023-05-18T03:52:44.569Z,1.10
2023-05-18T03:55:12.147Z,1.30
2023-05-18T03:57:39.172Z,1.30
2023-05-18T04:00:11.912Z,1.40
2023-05-18T04:02:39.466Z,1.30
2023-05-18T04:05:08.843Z,1.20
2023-05-18T04:07:43.778Z,1.20
2023-05-18T04:10:12.175Z,1.25
2023-05-18T04:12:39.233Z,1.30
2023-05-18T04:15:06.770Z,1.30
2023-05-18T04:17:34.106Z,1.20
2023-05-18T04:20:04.297Z,1.25
2023-05-18T04:22:31.271Z,1.40
2023-05-18T04:24:57.940Z,1.20
2023-05-18T04:27:25.113Z,1.40
2023-05-18T04:29:51.967Z,1.42
2023-05-18T04:32:19.129Z,1.20
2023-05-18T04:34:49.706Z,1.20
2023-05-18T04:37:18.018Z,1.50
2023-05-18T04:39:44.615Z,1.33
2023-05-18T04:42:14.592Z,1.30
2023-05-18T04:44:41.290Z,1.48
2023-05-18T04:47:08.627Z,1.25
2023-05-18T04:49:35.380Z,1.23
2023-05-18T04:52:02.147Z,1.30
2023-05-18T04:54:32.920Z,1.23
2023-05-18T04:56:59.830Z,1.40
2023-05-18T04:59:26.631Z,1.40
2023-05-18T05:01:53.819Z,1.30
2023-05-18T05:04:24.012Z,1.30
2023-05-18T05:06:50.628Z,1.40
2023-05-18T05:09:17.315Z,1.40
2023-05-18T05:11:43.936Z,1.58
2023-05-18T05:14:10.682Z,1.73
2023-05-18T05:16:37.409Z,1.58
2023-05-18T05:19:04.171Z,1.40
2023-05-18T05:21:31.729Z,1.58
2023-05-18T05:23:58.728Z,1.60
2023-05-18T05:26:26.104Z,1.50
2023-05-18T05:28:52.746Z,1.40
2023-05-18T05:31:19.449Z,1.27
2023-05-18T05:33:46.127Z,1.35
2023-05-18T05:36:12.817Z,1.50
2023-05-18T05:38:39.482Z,1.30
2023-05-18T05:41:06.386Z,1.50
2023-05-18T05:43:33.084Z,1.35
2023-05-18T05:45:59.749Z,1.30
2023-05-18T05:48:26.675Z,1.48
2023-05-18T05:50:53.360Z,1.40
2023-05-18T05:53:21.018Z,1.35
2023-05-18T05:55:47.655Z,1.50
2023-05-18T05:58:14.342Z,1.40
2023-05-18T06:00:41.045Z,1.38
2023-05-18T06:03:08.447Z,1.50
2023-05-18T06:05:35.195Z,1.40
2023-05-18T06:08:01.964Z,1.30
2023-05-18T06:10:28.736Z,1.30
2023-05-18T06:12:55.377Z,1.30
2023-05-18T06:15:22.055Z,1.33
2023-05-18T06:17:48.746Z,1.50
2023-05-18T06:20:15.568Z,1.30
2023-05-18T06:22:42.345Z,1.20
2023-05-18T06:25:10.729Z,1.40
2023-05-18T06:27:37.463Z,1.50
2023-05-18T06:30:05.632Z,1.27
2023-05-18T06:32:32.440Z,1.35
2023-05-18T06:34:59.162Z,1.40
2023-05-18T06:37:25.821Z,1.35
2023-05-18T06:39:52.470Z,1.42
2023-05-18T06:42:19.383Z,1.50
2023-05-18T06:44:46.161Z,1.50
2023-05-18T06:47:12.850Z,1.60
2023-05-18T06:49:39.455Z,1.80
2023-05-18T06:52:07.098Z,1.63
2023-05-18T06:54:33.736Z,1.70
2023-05-18T06:57:00.441Z,1.70
2023-05-18T06:59:27.126Z,1.60
2023-05-18T07:01:53.794Z,1.75
2023-05-18T07:04:20.558Z,1.70
2023-05-18T07:06:47.691Z,1.55
2023-05-18T07:09:14.399Z,1.83
2023-05-18T07:11:41.180Z,1.80
2023-05-18T07:14:07.789Z,1.75
2023-05-18T07:16:35.563Z,1.70
2023-05-18T07:19:03.741Z,1.98
2023-05-18T07:21:31.384Z,1.67
2023-05-18T07:23:58.024Z,2.05
2023-05-18T07:26:24.733Z,1.65
2023-05-18T07:28:51.721Z,1.98
2023-05-18T07:31:21.315Z,2.00
2023-05-18T07:33:48.348Z,1.83
2023-05-18T07:36:15.484Z,1.80
2023-05-18T07:38:42.092Z,2.03
2023-05-18T07:41:08.774Z,1.55
2023-05-18T07:43:35.561Z,1.80
2023-05-18T07:46:03.350Z,1.58
2023-05-18T07:48:30.057Z,1.60
2023-05-18T07:50:56.749Z,1.60
2023-05-18T07:53:23.384Z,1.42
2023-05-18T07:55:50.274Z,1.50
2023-05-18T07:58:16.903Z,1.60
2023-05-18T08:00:44.477Z,1.40
2023-05-18T08:03:11.261Z,1.50
2023-05-18T08:05:38.036Z,1.42
2023-05-18T08:08:06.838Z,1.40
2023-05-18T08:10:34.240Z,1.65
2023-05-18T08:13:00.867Z,1.70
2023-05-18T08:15:27.507Z,1.60
2023-05-18T08:17:55.143Z,1.60
2023-05-18T08:20:22.072Z,1.75
2023-05-18T08:22:48.958Z,1.80
2023-05-18T08:25:15.625Z,1.65
2023-05-18T08:27:42.247Z,1.80
2023-05-18T08:30:10.120Z,1.50
2023-05-18T08:32:37.526Z,1.70
2023-05-18T08:35:06.012Z,1.80
2023-05-18T08:37:32.704Z,1.70
2023-05-18T08:39:59.876Z,1.35
2023-05-18T08:42:53.201Z,1.67
2023-05-18T08:45:36.325Z,1.58
2023-05-18T08:48:03.771Z,1.40
2023-05-18T08:50:32.721Z,1.42
2023-05-18T08:53:06.057Z,1.45
2023-05-18T08:55:37.433Z,1.30
2023-05-18T08:58:07.583Z,1.35
2023-05-18T09:00:35.082Z,1.40
2023-05-18T09:03:05.360Z,1.50
2023-05-18T09:05:32.499Z,1.45
2023-05-18T09:08:00.614Z,1.70
2023-05-18T09:10:27.422Z,1.38
2023-05-18T09:12:56.229Z,1.20
2023-05-18T09:15:25.410Z,1.55
2023-05-18T09:17:52.400Z,1.23
2023-05-18T09:20:20.210Z,1.50
2023-05-18T09:22:49.534Z,1.50
2023-05-18T09:25:17.857Z,1.10
2023-05-18T09:27:44.655Z,1.60
2023-05-18T09:30:12.093Z,1.30
2023-05-18T09:32:39.269Z,1.30
2023-05-18T09:35:07.719Z,1.58
2023-05-18T09:37:35.104Z,1.70
2023-05-18T09:40:08.231Z,1.40
2023-05-18T09:42:39.663Z,1.50
2023-05-18T09:45:23.976Z,1.40
2023-05-18T09:47:51.417Z,1.50
2023-05-18T09:50:25.119Z,1.77
2023-05-18T09:52:51.839Z,1.42
2023-05-18T09:55:20.103Z,1.50
2023-05-18T09:57:49.023Z,1.50
2023-05-18T10:00:17.457Z,1.60
2023-05-18T10:02:50.463Z,1.58
2023-05-18T10:05:24.609Z,1.50
2023-05-18T10:07:51.528Z,1.50
2023-05-18T10:10:20.360Z,1.40
2023-05-18T10:12:47.705Z,1.77
2023-05-18T10:15:16.180Z,1.75
2023-05-18T10:17:45.196Z,1.63
2023-05-18T10:20:17.511Z,1.40
2023-05-18T10:22:46.735Z,1.40
2023-05-18T10:25:23.039Z,1.40
2023-05-18T10:27:51.339Z,1.40
2023-05-18T10:30:18.376Z,1.40
2023-05-18T10:32:45.906Z,1.50
2023-05-18T10:35:13.936Z,1.60
2023-05-18T10:37:43.968Z,1.40
2023-05-18T10:40:12.303Z,1.58
2023-05-18T10:42:41.533Z,1.48
2023-05-18T10:45:10.370Z,1.33
2023-05-18T10:47:40.019Z,1.45
2023-05-18T10:50:08.488Z,1.50
2023-05-18T10:52:37.346Z,1.50
2023-05-18T10:55:04.593Z,1.58
2023-05-18T10:57:39.784Z,1.83
2023-05-18T11:00:09.468Z,1.55
2023-05-18T11:02:42.438Z,1.40
2023-05-18T11:05:10.753Z,1.52
2023-05-18T11:07:38.177Z,1.42
2023-05-18T11:10:09.982Z,1.50
2023-05-18T11:12:39.025Z,1.48
2023-05-18T11:15:06.373Z,1.45
2023-05-18T11:17:33.421Z,1.40
2023-05-18T11:20:09.455Z,1.30
2023-05-18T11:22:51.554Z,1.30
2023-05-18T11:25:24.270Z,1.60
2023-05-18T11:27:52.573Z,1.43
2023-05-18T11:30:34.615Z,1.45
2023-05-18T11:33:12.410Z,1.42
2023-05-18T11:36:11.292Z,1.48
2023-05-18T11:38:56.071Z,1.50
2023-05-18T11:41:36.778Z,1.60
2023-05-18T11:44:06.843Z,1.58
2023-05-18T11:46:34.054Z,1.40
2023-05-18T11:49:07.163Z,1.92
2023-05-18T11:51:34.216Z,1.60
2023-05-18T11:54:01.615Z,1.60
2023-05-18T11:56:33.750Z,1.70
2023-05-18T11:59:14.216Z,1.60
2023-05-18T12:01:43.121Z,1.50
2023-05-18T12:04:11.120Z,1.63
2023-05-18T12:06:38.293Z,1.67
2023-05-18T12:09:05.886Z,1.80
2023-05-18T12:11:33.415Z,1.67
2023-05-18T12:14:01.161Z,1.60
2023-05-18T12:16:30.193Z,1.50
2023-05-18T12:18:57.383Z,1.60
2023-05-18T12:21:26.931Z,1.23
2023-05-18T12:24:00.378Z,1.58
2023-05-18T12:28:56.811Z,1.55
2023-05-18T12:31:23.694Z,1.40
2023-05-18T12:33:51.726Z,1.50
2023-05-18T12:36:18.418Z,1.42
2023-05-18T12:38:49.903Z,1.33
2023-05-18T12:41:26.789Z,1.33
2023-05-18T12:43:54.975Z,1.40
2023-05-18T12:46:25.777Z,1.60
2023-05-18T12:48:58.329Z,1.48
2023-05-18T12:51:30.967Z,1.40
2023-05-18T12:53:57.778Z,1.33
2023-05-18T12:56:28.576Z,1.50
2023-05-18T12:58:59.484Z,1.88
2023-05-18T13:01:26.786Z,1.70
2023-05-18T13:04:00.515Z,1.50
2023-05-18T13:06:27.219Z,1.50
2023-05-18T13:08:55.714Z,1.90
2023-05-18T13:11:26.420Z,1.50
2023-05-18T13:14:00.949Z,1.55
2023-05-18T13:16:30.374Z,1.55
2023-05-18T13:19:06.851Z,2.10
2023-05-18T13:21:34.850Z,1.83
2023-05-18T13:24:03.266Z,1.90
2023-05-18T13:26:29.928Z,1.80
2023-05-18T13:28:57.511Z,2.05
2023-05-18T13:31:25.131Z,1.52
2023-05-18T13:33:51.957Z,1.50
2023-05-18T13:36:19.441Z,1.45
2023-05-18T13:38:46.526Z,1.55
2023-05-18T13:41:15.220Z,1.50
2023-05-18T13:43:42.954Z,1.70
2023-05-18T13:46:09.929Z,2.00
2023-05-18T13:48:36.683Z,1.77
2023-05-18T13:51:03.498Z,1.80
2023-05-18T13:53:30.144Z,1.70
2023-05-18T13:55:56.785Z,1.70
2023-05-18T13:58:23.906Z,1.60
2023-05-18T14:00:50.679Z,1.50
2023-05-18T14:03:20.179Z,1.65
2023-05-18T14:05:46.978Z,1.70
2023-05-18T14:08:13.645Z,1.40
2023-05-18T14:10:40.562Z,1.50
2023-05-18T14:13:08.507Z,1.42
2023-05-18T14:15:35.237Z,1.50
2023-05-18T14:18:02.040Z,1.50
2023-05-18T14:20:29.972Z,1.70
2023-05-18T14:22:57.089Z,1.30
2023-05-18T14:25:23.727Z,1.55
2023-05-18T14:27:50.575Z,1.50
2023-05-18T14:30:17.303Z,1.60
2023-05-18T14:32:43.973Z,1.45
2023-05-18T14:35:10.647Z,1.80
2023-05-18T14:37:37.330Z,1.50
2023-05-18T14:40:05.916Z,1.40
2023-05-18T14:42:32.685Z,1.70
2023-05-18T14:44:59.366Z,1.42
2023-05-18T14:47:26.201Z,1.45
2023-05-18T14:49:52.935Z,1.70
2023-05-18T14:52:19.570Z,1.42
2023-05-18T14:54:47.861Z,1.80
2023-05-18T14:57:14.483Z,1.73
2023-05-18T14:59:41.474Z,1.92
2023-05-18T15:02:08.387Z,1.85
2023-05-18T15:04:36.084Z,1.63
2023-05-18T15:07:02.883Z,1.60
2023-05-18T15:09:29.545Z,1.95
2023-05-18T15:11:56.326Z,1.70
2023-05-18T15:14:22.947Z,1.80
2023-05-18T15:16:49.595Z,1.60
2023-05-18T15:19:16.285Z,1.73
2023-05-18T15:21:44.839Z,1.80
2023-05-18T15:24:11.787Z,1.65
2023-05-18T15:26:38.504Z,1.60
2023-05-18T15:29:05.199Z,1.63
2023-05-18T15:31:33.072Z,1.60
2023-05-18T15:33:59.789Z,1.35
2023-05-18T15:36:26.514Z,1.40
2023-05-18T15:38:53.103Z,1.40
2023-05-18T15:41:19.769Z,1.73
2023-05-18T15:43:46.851Z,1.50
2023-05-18T15:46:13.725Z,1.58
2023-05-18T15:48:40.474Z,1.67
2023-05-18T15:51:07.573Z,1.60
2023-05-18T15:53:34.271Z,1.70
2023-05-18T15:56:01.102Z,1.50
2023-05-18T15:58:27.741Z,1.60
2023-05-18T16:00:54.426Z,1.50
2023-05-18T16:03:21.332Z,1.40
2023-05-18T16:05:48.189Z,1.48
2023-05-18T16:08:15.132Z,1.50
2023-05-18T16:10:41.794Z,1.50
2023-05-18T16:13:08.534Z,1.60
2023-05-18T16:15:35.900Z,1.42
2023-05-18T16:18:02.936Z,1.33
2023-05-18T16:20:30.118Z,1.33
2023-05-18T16:22:57.426Z,1.50
2023-05-18T16:25:24.341Z,1.30
2023-05-18T16:27:51.020Z,1.60
2023-05-18T16:30:18.222Z,1.45
2023-05-18T16:32:45.004Z,1.50
2023-05-18T16:35:11.853Z,1.40
2023-05-18T16:37:38.906Z,1.33
2023-05-18T16:40:06.436Z,1.30
2023-05-18T16:42:34.037Z,1.30
2023-05-18T16:45:00.805Z,1.23
2023-05-18T16:47:33.472Z,1.10
2023-05-18T16:50:00.560Z,1.30
2023-05-18T16:52:27.460Z,1.20
2023-05-18T16:54:54.155Z,1.38
2023-05-18T16:57:21.105Z,1.30
2023-05-18T16:59:47.940Z,1.10
2023-05-18T17:02:15.555Z,1.13
2023-05-18T17:04:44.384Z,1.30
2023-05-18T17:07:12.418Z,1.38
2023-05-18T17:09:41.669Z,1.30
2023-05-18T17:12:10.697Z,1.27
2023-05-18T17:14:37.519Z,1.20
2023-05-18T17:17:05.535Z,1.48
2023-05-18T17:19:33.162Z,1.27
2023-05-18T17:21:59.764Z,1.10
2023-05-18T17:24:26.501Z,1.30
2023-05-18T17:26:53.262Z,1.10
2023-05-18T17:29:21.844Z,1.33
2023-05-18T17:31:48.805Z,1.30
2023-05-18T17:34:15.582Z,1.10
2023-05-18T17:36:43.565Z,1.30
2023-05-18T17:39:10.327Z,1.10
2023-05-18T17:41:37.216Z,1.20
2023-05-18T17:44:04.371Z,1.20
2023-05-18T17:46:31.232Z,1.40
2023-05-18T17:48:58.003Z,1.20
2023-05-18T17:51:25.107Z,1.30
2023-05-18T17:53:51.847Z,1.08
2023-05-18T17:56:18.726Z,1.30
2023-05-18T17:58:45.599Z,1.20
2023-05-18T18:01:12.441Z,1.30
2023-05-18T18:03:39.324Z,1.20
2023-05-18T18:06:06.883Z,1.30
2023-05-18T18:08:33.981Z,1.20
2023-05-18T18:11:00.900Z,1.00
2023-05-18T18:13:27.762Z,1.10
2023-05-18T18:15:54.515Z,1.20
2023-05-18T18:18:21.599Z,1.20
2023-05-18T18:20:48.246Z,1.10
2023-05-18T18:23:15.731Z,1.30
2023-05-18T18:25:44.151Z,1.20
2023-05-18T18:28:15.131Z,1.08
2023-05-18T18:30:44.488Z,1.08
2023-05-18T18:33:11.738Z,1.10
2023-05-18T18:35:38.538Z,1.00
2023-05-18T18:38:05.449Z,1.02
2023-05-18T18:40:32.981Z,1.00
2023-05-18T18:42:59.799Z,1.10
2023-05-18T18:45:29.035Z,1.10
2023-05-18T18:47:55.860Z,1.17
2023-05-18T18:50:22.544Z,1.00
2023-05-18T18:52:49.310Z,1.10
2023-05-18T18:55:17.355Z,1.20
2023-05-18T18:57:44.719Z,1.10
2023-05-18T19:00:12.553Z,1.10
2023-05-18T19:02:40.445Z,1.20
2023-05-18T19:05:09.022Z,1.13
2023-05-18T19:07:36.582Z,1.30
2023-05-18T19:10:04.567Z,1.20
2023-05-18T19:12:31.395Z,1.10
2023-05-18T19:14:58.215Z,1.10
2023-05-18T19:17:26.524Z,1.02
2023-05-18T19:19:53.474Z,1.10
2023-05-18T19:22:20.327Z,1.00
2023-05-18T19:24:46.925Z,1.10
2023-05-18T19:27:13.701Z,1.20
2023-05-18T19:29:40.437Z,1.00
2023-05-18T19:32:07.621Z,1.08
2023-05-18T19:34:34.717Z,1.10
2023-05-18T19:37:01.835Z,1.10
2023-05-18T19:39:28.736Z,1.10
2023-05-18T19:41:55.559Z,1.27
2023-05-18T19:44:22.369Z,1.20
2023-05-18T19:46:49.152Z,1.05
2023-05-18T19:49:16.103Z,1.20
2023-05-18T19:51:42.831Z,1.23
2023-05-18T19:54:09.539Z,1.20
2023-05-18T19:56:36.472Z,1.17
2023-05-18T19:59:03.206Z,1.15
2023-05-18T20:01:30.013Z,1.02
2023-05-18T20:03:57.020Z,1.10
2023-05-18T20:06:23.854Z,1.30
2023-05-18T20:08:50.515Z,1.10
2023-05-18T20:11:18.714Z,1.00
2023-05-18T20:13:46.168Z,1.20
2023-05-18T20:16:13.728Z,1.02
2023-05-18T20:18:40.745Z,1.00
2023-05-18T20:21:07.668Z,1.00
2023-05-18T20:23:34.370Z,1.10
2023-05-18T20:26:01.427Z,1.13
2023-05-18T20:28:31.104Z,1.20
2023-05-18T20:30:59.134Z,1.10
2023-05-18T20:33:25.903Z,1.08
2023-05-18T20:35:52.527Z,1.10
2023-05-18T20:38:19.160Z,1.10
2023-05-18T20:40:46.380Z,1.10
2023-05-18T20:43:18.075Z,1.10
2023-05-18T20:45:46.545Z,1.05
2023-05-18T20:48:16.620Z,0.93
2023-05-18T20:50:43.441Z,1.17
2023-05-18T20:53:10.043Z,1.20
2023-05-18T20:55:38.786Z,1.20
2023-05-18T20:58:05.437Z,1.08
2023-05-18T21:00:32.315Z,1.00
2023-05-18T21:02:59.223Z,1.00
2023-05-18T21:05:25.925Z,1.05
2023-05-18T21:07:53.627Z,1.00
2023-05-18T21:10:20.419Z,1.10
2023-05-18T21:12:47.108Z,1.00
2023-05-18T21:15:13.807Z,0.98
2023-05-18T21:17:40.613Z,1.00
2023-05-18T21:20:09.343Z,1.00
2023-05-18T21:22:36.072Z,1.00
2023-05-18T21:25:06.132Z,1.13
2023-05-18T21:27:33.254Z,1.02
2023-05-18T21:29:59.885Z,0.98
2023-05-18T21:32:26.606Z,0.93
2023-05-18T21:34:53.289Z,1.00
2023-05-18T21:37:20.777Z,1.10
2023-05-18T21:39:47.416Z,1.10
2023-05-18T21:42:14.491Z,1.08
2023-05-18T21:44:41.071Z,1.20
2023-05-18T21:47:07.747Z,1.10
2023-05-18T21:49:34.402Z,1.13
2023-05-18T21:52:01.140Z,1.10
2023-05-18T21:54:32.051Z,1.10
2023-05-18T21:56:59.607Z,1.00
2023-05-18T21:59:26.230Z,1.15
2023-05-18T22:01:52.837Z,1.15
2023-05-18T22:04:19.522Z,1.10
2023-05-18T22:06:46.219Z,1.13
2023-05-18T22:09:12.819Z,1.00
2023-05-18T22:11:39.465Z,1.10
2023-05-18T22:14:06.087Z,1.15
2023-05-18T22:16:33.340Z,1.10
2023-05-18T22:19:00.079Z,1.20
2023-05-18T22:21:27.056Z,1.20
2023-05-18T22:23:53.739Z,1.10
2023-05-18T22:26:21.508Z,1.20
2023-05-18T22:28:48.182Z,1.10
2023-05-18T22:31:14.767Z,1.00
2023-05-18T22:33:41.412Z,1.00
2023-05-18T22:36:08.249Z,1.15
2023-05-18T22:38:34.854Z,1.20
2023-05-18T22:41:01.465Z,1.10
2023-05-18T22:43:29.069Z,1.00
2023-05-18T22:45:55.805Z,1.10
2023-05-18T22:48:22.499Z,1.10
2023-05-18T22:50:49.100Z,1.10
2023-05-18T22:53:15.832Z,1.10
2023-05-18T22:55:42.569Z,1.08
2023-05-18T22:58:09.163Z,1.00
2023-05-18T23:00:35.783Z,1.10
2023-05-18T23:03:02.424Z,1.13
2023-05-18T23:05:29.242Z,1.00
2023-05-18T23:07:58.181Z,1.05
2023-05-18T23:10:26.542Z,1.10
2023-05-18T23:12:55.662Z,1.10
2023-05-18T23:15:23.131Z,1.00
2023-05-18T23:17:50.314Z,1.10
2023-05-18T23:20:17.067Z,1.10
2023-05-18T23:22:44.488Z,1.08
2023-05-18T23:25:11.453Z,1.20
2023-05-18T23:27:38.176Z,1.27
2023-05-18T23:30:05.474Z,1.05
2023-05-18T23:32:32.648Z,1.17
2023-05-18T23:34:59.925Z,1.05
2023-05-18T23:37:26.737Z,1.00
2023-05-18T23:39:54.447Z,1.10
2023-05-18T23:42:24.076Z,1.10
2023-05-18T23:44:51.009Z,1.10
2023-05-18T23:47:18.045Z,1.10
2023-05-18T23:49:45.454Z,1.00
2023-05-18T23:52:13.746Z,1.05
2023-05-18T23:54:41.063Z,1.20
2023-05-18T23:57:08.302Z,1.10
2023-05-18T23:59:35.768Z,1.10
